Time;durP1;ratioP1;P1;durP2;ratioP2;P2;SDS_P1;SDS_P2;PMS_P1;PMS_P2;Temp;Humidity;BMP_temperature;BMP_pressure;BME280_temperature;BME280_humidity;BME280_pressure;Samples;Min_cycle;Max_cycle;Signal;HPM_P1;HPM_P2
2022/03/12 00:00:08;;;;;;;26.33;11.82;;;89.90;2176.00;;;;;;4975103;28;20497;-77
2022/03/12 00:02:34;;;;;;;12.73;8.25;;;89.90;2176.00;;;;;;4958997;28;20486;-78
2022/03/12 00:05:06;;;;;;;16.33;9.43;;;89.90;2176.00;;;;;;4970829;28;20030;-77
2022/03/12 00:07:32;;;;;;;28.88;13.38;;;89.90;2176.00;;;;;;4974920;28;20486;-77
2022/03/12 00:09:57;;;;;;;16.90;9.27;;;90.00;2176.00;;;;;;4974931;28;20033;-76
2022/03/12 00:12:24;;;;;;;23.92;13.65;;;90.00;2176.00;;;;;;4974876;28;20134;-78
2022/03/12 00:14:50;;;;;;;25.00;16.17;;;90.00;2176.00;;;;;;4975828;28;20051;-78
2022/03/12 00:17:16;;;;;;;26.98;10.85;;;90.00;2176.00;;;;;;4976064;28;20637;-77
2022/03/12 00:19:42;;;;;;;28.00;16.45;;;90.00;2176.00;;;;;;4981518;28;20150;-79
2022/03/12 00:22:10;;;;;;;16.17;9.73;;;90.00;2176.00;;;;;;4978053;28;20037;-77
2022/03/12 00:24:40;;;;;;;21.23;13.90;;;90.20;2176.00;;;;;;4995684;28;20105;-76
2022/03/12 00:27:08;;;;;;;22.08;13.18;;;90.20;2176.00;;;;;;5010234;28;20049;-77
2022/03/12 00:29:35;;;;;;;28.60;16.20;;;90.10;2176.00;;;;;;4977844;28;20466;-78
2022/03/12 00:32:02;;;;;;;20.35;11.25;;;90.10;2176.00;;;;;;5010280;28;20026;-76
2022/03/12 00:34:27;;;;;;;18.10;10.50;;;90.10;2176.00;;;;;;4993982;28;20466;-76
2022/03/12 00:36:53;;;;;;;23.70;11.60;;;90.10;2176.00;;;;;;4975445;28;20037;-77
2022/03/12 00:39:19;;;;;;;16.17;11.18;;;90.20;2176.00;;;;;;4994363;28;20104;-76
2022/03/12 00:41:45;;;;;;;30.38;15.10;;;90.10;2176.00;;;;;;4973739;28;20034;-78
2022/03/12 00:44:17;;;;;;;21.25;10.25;;;90.10;2176.00;;;;;;4985402;28;20466;-74
2022/03/12 00:46:43;;;;;;;18.15;10.90;;;90.20;2176.00;;;;;;4974606;28;20475;-79
2022/03/12 00:49:09;;;;;;;27.15;15.60;;;90.20;2176.00;;;;;;4974285;28;20096;-75
2022/03/12 00:51:35;;;;;;;18.95;11.02;;;90.30;2176.00;;;;;;4985048;28;20056;-77
2022/03/12 00:54:01;;;;;;;19.90;10.13;;;90.40;2176.00;;;;;;4995153;28;20077;-75
2022/03/12 00:56:27;;;;;;;28.17;13.07;;;90.50;2176.00;;;;;;4994327;28;20026;-79
2022/03/12 00:58:52;;;;;;;24.10;15.27;;;90.50;2176.00;;;;;;4977315;28;20534;-75
2022/03/12 01:01:18;;;;;;;30.52;16.33;;;90.50;2176.00;;;;;;4994398;28;20077;-76
2022/03/12 01:03:44;;;;;;;23.58;13.85;;;90.50;2176.00;;;;;;4977182;28;20035;-77
2022/03/12 01:06:13;;;;;;;27.55;13.77;;;90.50;2176.00;;;;;;4994335;28;20025;-75
2022/03/12 01:08:39;;;;;;;28.60;15.55;;;90.50;2176.00;;;;;;4994336;28;20054;-78
2022/03/12 01:11:08;;;;;;;26.23;15.07;;;90.50;2176.00;;;;;;4977109;28;20050;-77
2022/03/12 01:13:34;;;;;;;26.13;12.82;;;90.50;2176.00;;;;;;4994463;28;20019;-77
2022/03/12 01:16:00;;;;;;;29.63;16.23;;;115.20;2176.00;;;;;;4994439;28;20543;-78
2022/03/12 01:18:26;;;;;;;36.05;14.57;;;90.50;2176.00;;;;;;4976999;28;20023;-78
2022/03/12 01:20:53;;;;;;;26.65;15.90;;;115.20;2176.00;;;;;;4994654;28;20084;-77
2022/03/12 01:23:23;;;;;;;26.80;12.60;;;90.40;2176.00;;;;;;4976878;28;20172;-77
2022/03/12 01:25:50;;;;;;;30.05;14.52;;;115.20;2176.00;;;;;;4994273;28;20029;-75
2022/03/12 01:28:18;;;;;;;29.95;14.35;;;90.50;2176.00;;;;;;4994187;28;20034;-76
2022/03/12 01:30:44;;;;;;;39.90;18.55;;;90.50;2176.00;;;;;;4993801;28;20030;-75
2022/03/12 01:33:10;;;;;;;33.22;17.02;;;115.20;2176.00;;;;;;4992879;28;20022;-77
2022/03/12 01:35:36;;;;;;;24.77;16.55;;;115.20;2176.00;;;;;;4994229;28;20054;-75
2022/03/12 01:38:03;;;;;;;24.70;16.13;;;115.20;2176.00;;;;;;4994041;28;20029;-77
2022/03/12 01:40:29;;;;;;;17.77;10.52;;;115.20;2176.00;;;;;;4992682;28;20080;-75
2022/03/12 01:42:55;;;;;;;19.05;10.07;;;115.30;2176.00;;;;;;4993926;28;20026;-75
2022/03/12 01:45:26;;;;;;;22.83;11.48;;;115.50;2176.00;;;;;;4993703;28;20027;-75
2022/03/12 01:47:55;;;;;;;17.60;10.55;;;115.50;2176.00;;;;;;4976280;28;20046;-77
2022/03/12 01:50:21;;;;;;;23.60;12.30;;;115.50;2176.00;;;;;;4993867;28;20026;-76
2022/03/12 01:52:48;;;;;;;18.15;10.65;;;115.50;2176.00;;;;;;4993476;28;20019;-77
2022/03/12 01:55:13;;;;;;;21.55;10.25;;;115.50;2176.00;;;;;;4993717;28;20022;-77
2022/03/12 01:57:39;;;;;;;15.90;9.35;;;115.50;2176.00;;;;;;4991230;28;20041;-75
2022/03/12 02:00:06;;;;;;;22.77;10.57;;;115.60;2176.00;;;;;;4976256;28;20030;-77
2022/03/12 02:02:31;;;;;;;22.08;13.13;;;115.60;2176.00;;;;;;4993272;28;20034;-77
2022/03/12 02:04:58;;;;;;;19.48;10.55;;;115.60;2176.00;;;;;;4993479;28;20110;-77
2022/03/12 02:07:24;;;;;;;18.48;10.30;;;115.60;2176.00;;;;;;4975945;28;20512;-76
2022/03/12 02:09:50;;;;;;;22.73;12.65;;;115.50;2176.00;;;;;;4993516;28;20097;-75
2022/03/12 02:12:16;;;;;;;24.92;14.27;;;115.60;2176.00;;;;;;4993406;28;20030;-78
2022/03/12 02:14:42;;;;;;;22.77;12.52;;;115.50;2176.00;;;;;;4993259;28;20140;-76
2022/03/12 02:17:12;;;;;;;22.58;13.95;;;115.50;2176.00;;;;;;4993283;28;20035;-77
2022/03/12 02:19:40;;;;;;;17.65;11.40;;;115.60;2176.00;;;;;;4993569;28;20022;-77
2022/03/12 02:22:13;;;;;;;23.52;12.02;;;115.60;2176.00;;;;;;4993212;28;20030;-77
2022/03/12 02:24:39;;;;;;;13.32;9.02;;;115.70;2176.00;;;;;;4991978;28;20057;-77
2022/03/12 02:27:12;;;;;;;19.80;11.75;;;115.70;2176.00;;;;;;4993067;28;20529;-77
2022/03/12 02:29:40;;;;;;;18.07;10.53;;;115.80;2176.00;;;;;;4991976;28;20031;-77
2022/03/12 02:32:10;;;;;;;19.70;10.43;;;115.70;2176.00;;;;;;4993272;28;20484;-77
2022/03/12 02:34:39;;;;;;;25.00;14.18;;;115.70;2176.00;;;;;;4993114;28;20030;-77
2022/03/12 02:37:05;;;;;;;20.50;11.18;;;115.70;2176.00;;;;;;4992970;28;20057;-77
2022/03/12 02:39:31;;;;;;;17.23;10.35;;;115.80;2176.00;;;;;;4992683;28;20023;-77
2022/03/12 02:42:03;;;;;;;21.58;8.80;;;115.80;2176.00;;;;;;4992656;28;20022;-77
2022/03/12 02:44:29;;;;;;;27.02;14.30;;;115.80;2176.00;;;;;;4993134;28;20037;-77
2022/03/12 02:47:15;;;;;;;31.23;13.45;;;115.80;2176.00;;;;;;4992787;28;20085;-77
2022/03/12 02:49:46;;;;;;;25.63;10.18;;;115.80;2176.00;;;;;;4991576;28;20030;-77
2022/03/12 02:52:13;;;;;;;20.10;12.23;;;115.80;2176.00;;;;;;4992562;28;20033;-76
2022/03/12 02:54:40;;;;;;;19.55;11.23;;;115.80;2176.00;;;;;;4992576;28;20076;-76
2022/03/12 02:57:06;;;;;;;20.35;11.23;;;115.80;2176.00;;;;;;4992737;28;20101;-77
2022/03/12 02:59:33;;;;;;;22.75;11.65;;;115.90;2176.00;;;;;;4992750;28;20054;-76
2022/03/12 03:02:03;;;;;;;24.92;13.35;;;115.90;2176.00;;;;;;4992729;28;20026;-77
2022/03/12 03:04:34;;;;;;;19.48;10.15;;;115.90;2176.00;;;;;;4992427;28;20058;-77
2022/03/12 03:07:00;;;;;;;21.13;11.55;;;115.90;2176.00;;;;;;4992798;28;20392;-77
2022/03/12 03:09:27;;;;;;;16.60;10.80;;;115.90;2176.00;;;;;;4990880;28;20062;-76
2022/03/12 03:11:54;;;;;;;14.88;8.88;;;115.90;2176.00;;;;;;4992305;28;20052;-77
2022/03/12 03:14:23;;;;;;;18.83;11.07;;;116.00;2176.00;;;;;;4974975;28;20057;-76
2022/03/12 03:16:51;;;;;;;21.63;13.07;;;116.00;2176.00;;;;;;4992514;28;20478;-77
2022/03/12 03:19:17;;;;;;;19.48;10.35;;;116.00;2176.00;;;;;;4992654;28;20022;-77
2022/03/12 03:21:42;;;;;;;20.30;9.98;;;116.00;2176.00;;;;;;4992476;28;20026;-77
2022/03/12 03:24:08;;;;;;;20.17;12.88;;;116.00;2176.00;;;;;;4992891;28;20549;-77
2022/03/12 03:26:34;;;;;;;19.48;12.05;;;116.00;2176.00;;;;;;4992367;28;20034;-77
2022/03/12 03:29:00;;;;;;;21.02;11.90;;;116.00;2176.00;;;;;;4975054;28;20469;-77
2022/03/12 03:31:26;;;;;;;32.05;14.65;;;116.00;2176.00;;;;;;4992144;28;20076;-77
2022/03/12 03:33:52;;;;;;;14.15;8.20;;;116.10;2176.00;;;;;;4992483;28;20026;-77
2022/03/12 03:36:19;;;;;;;21.90;13.13;;;116.10;2176.00;;;;;;4992210;28;20030;-78
2022/03/12 03:38:45;;;;;;;22.58;12.63;;;116.10;2176.00;;;;;;4992372;28;20077;-77
2022/03/12 03:41:11;;;;;;;21.27;11.70;;;116.00;2176.00;;;;;;4991058;28;20386;-77
2022/03/12 03:43:37;;;;;;;24.98;12.00;;;116.10;2176.00;;;;;;4992347;28;20097;-78
2022/03/12 03:46:02;;;;;;;25.25;11.18;;;116.10;2176.00;;;;;;4992483;28;20493;-77
2022/03/12 03:48:28;;;;;;;25.77;12.90;;;140.80;2176.00;;;;;;4991848;28;20177;-77
2022/03/12 03:50:54;;;;;;;21.85;10.75;;;140.80;2176.00;;;;;;4990996;28;20026;-77
2022/03/12 03:53:22;;;;;;;17.58;10.38;;;140.80;2176.00;;;;;;4991964;28;20429;-77
2022/03/12 03:55:49;;;;;;;29.35;13.15;;;140.80;2176.00;;;;;;4990689;28;20033;-78
2022/03/12 03:58:15;;;;;;;23.92;13.02;;;140.90;2176.00;;;;;;4991835;28;20029;-77
2022/03/12 04:00:54;;;;;;;22.92;13.35;;;141.00;2176.00;;;;;;4990942;28;20037;-77
2022/03/12 04:03:20;;;;;;;25.27;13.95;;;141.00;2176.00;;;;;;4974722;28;20022;-77
2022/03/12 04:05:46;;;;;;;19.08;10.48;;;141.00;2176.00;;;;;;4991898;28;20022;-77
2022/03/12 04:08:11;;;;;;;20.95;11.75;;;141.00;2176.00;;;;;;4991779;28;20049;-76
2022/03/12 04:10:39;;;;;;;25.20;12.60;;;141.00;2176.00;;;;;;4974360;28;20049;-77
2022/03/12 04:13:20;;;;;;;21.35;12.18;;;141.00;2176.00;;;;;;4991996;28;20077;-77
2022/03/12 04:15:48;;;;;;;18.73;12.80;;;141.00;2176.00;;;;;;4992104;28;20043;-77
2022/03/12 04:18:18;;;;;;;24.67;12.52;;;141.00;2176.00;;;;;;4990685;28;20379;-77
2022/03/12 04:20:48;;;;;;;29.23;16.45;;;141.10;2176.00;;;;;;4992941;28;20029;-77
2022/03/12 04:23:21;;;;;;;23.67;12.82;;;141.10;2176.00;;;;;;4994157;28;20026;-76
2022/03/12 04:25:48;;;;;;;21.85;13.40;;;141.00;2176.00;;;;;;4995652;28;20417;-77
2022/03/12 04:28:13;;;;;;;32.92;18.70;;;141.10;2176.00;;;;;;4977747;28;20078;-76
2022/03/12 04:30:39;;;;;;;25.30;15.57;;;141.10;2176.00;;;;;;4995024;28;20508;-77
2022/03/12 04:33:07;;;;;;;33.35;19.98;;;141.00;2176.00;;;;;;4995243;28;20029;-77
2022/03/12 04:35:34;;;;;;;38.33;15.07;;;141.00;2176.00;;;;;;4977857;28;20046;-77
2022/03/12 04:38:00;;;;;;;20.02;11.90;;;141.10;2176.00;;;;;;4977673;28;20496;-77
2022/03/12 04:40:26;;;;;;;23.73;12.95;;;141.10;2176.00;;;;;;4994914;28;20463;-78
2022/03/12 04:42:53;;;;;;;26.98;14.60;;;141.10;2176.00;;;;;;4995167;28;20430;-78
2022/03/12 04:45:21;;;;;;;32.15;17.67;;;141.10;2176.00;;;;;;4994796;28;20033;-78
2022/03/12 04:47:48;;;;;;;29.52;17.17;;;141.10;2176.00;;;;;;4995036;28;20035;-78
2022/03/12 04:50:16;;;;;;;25.58;15.95;;;141.10;2176.00;;;;;;4995093;28;20026;-78
2022/03/12 04:52:47;;;;;;;31.67;17.48;;;141.20;2176.00;;;;;;4993644;28;20030;-78
2022/03/12 04:55:15;;;;;;;44.60;19.83;;;141.20;2176.00;;;;;;4994903;28;20478;-78
2022/03/12 04:57:41;;;;;;;32.85;17.70;;;141.20;2176.00;;;;;;4994851;28;20105;-78
2022/03/12 05:00:22;;;;;;;41.17;19.10;;;141.20;2176.00;;;;;;4994596;28;20112;-77
2022/03/12 05:02:53;;;;;;;34.00;18.85;;;141.20;2176.00;;;;;;4959927;28;20019;-78
2022/03/12 05:05:18;;;;;;;23.45;14.15;;;141.20;2176.00;;;;;;4977166;28;20097;-78
2022/03/12 05:07:45;;;;;;;38.15;19.80;;;141.20;2176.00;;;;;;4973909;28;20078;-78
2022/03/12 05:10:18;;;;;;;28.17;17.92;;;141.20;2176.00;;;;;;4975084;28;20031;-77
2022/03/12 05:12:48;;;;;;;39.80;22.77;;;141.20;2176.00;;;;;;4975480;28;20033;-78
2022/03/12 05:15:15;;;;;;;25.33;12.57;;;141.20;2176.00;;;;;;4988956;28;20043;-76
2022/03/12 05:17:50;;;;;;;24.42;14.48;;;141.20;2176.00;;;;;;4974687;28;20117;-77
2022/03/12 05:20:25;;;;;;;23.25;12.77;;;141.20;2176.00;;;;;;4982250;28;20027;-78
2022/03/12 05:22:52;;;;;;;38.63;16.90;;;141.20;2176.00;;;;;;4976661;28;20106;-78
2022/03/12 05:25:19;;;;;;;30.08;15.80;;;141.20;2176.00;;;;;;4989043;28;20027;-78
2022/03/12 05:27:50;;;;;;;24.42;14.20;;;141.20;2176.00;;;;;;4974145;28;20504;-77
2022/03/12 05:30:16;;;;;;;26.75;15.73;;;141.20;2176.00;;;;;;4973923;28;20512;-78
2022/03/12 05:32:42;;;;;;;34.80;15.95;;;141.10;2176.00;;;;;;4975659;28;20023;-78
2022/03/12 05:35:08;;;;;;;33.40;17.13;;;141.10;2176.00;;;;;;4974037;28;20034;-77
2022/03/12 05:37:36;;;;;;;31.73;17.30;;;141.00;2176.00;;;;;;4976900;28;20023;-78
2022/03/12 05:40:04;;;;;;;43.03;22.48;;;141.00;2176.00;;;;;;4976503;28;20023;-78
2022/03/12 05:42:34;;;;;;;29.50;17.02;;;140.90;2176.00;;;;;;4976538;28;21179;-77
2022/03/12 05:45:07;;;;;;;39.85;23.00;;;140.80;2176.00;;;;;;4973820;28;20019;-77
2022/03/12 05:47:34;;;;;;;34.25;17.35;;;140.80;2176.00;;;;;;4973654;28;20125;-77
2022/03/12 05:50:02;;;;;;;33.08;18.48;;;116.10;2176.00;;;;;;4976127;28;20646;-78
2022/03/12 05:52:28;;;;;;;39.90;19.65;;;116.10;2176.00;;;;;;4957123;28;20027;-78
2022/03/12 05:54:53;;;;;;;32.75;18.70;;;115.90;2176.00;;;;;;4973560;28;20493;-78
2022/03/12 05:57:19;;;;;;;36.30;21.25;;;115.80;2176.00;;;;;;4973530;28;20078;-78
2022/03/12 05:59:49;;;;;;;33.53;18.58;;;115.70;2176.00;;;;;;4976670;28;20025;-78
2022/03/12 06:02:16;;;;;;;44.42;24.27;;;115.60;2176.00;;;;;;4973346;28;20022;-77
2022/03/12 06:04:42;;;;;;;34.08;19.27;;;115.40;2176.00;;;;;;4976121;28;20023;-77
2022/03/12 06:07:09;;;;;;;34.92;18.73;;;115.30;2176.00;;;;;;4974692;28;20485;-78
2022/03/12 06:09:35;;;;;;;38.20;22.67;;;115.30;2176.00;;;;;;4978464;28;20019;-77
2022/03/12 06:12:02;;;;;;;36.17;20.33;;;115.20;2176.00;;;;;;4973149;28;20076;-77
2022/03/12 06:14:28;;;;;;;26.23;14.85;;;90.50;2176.00;;;;;;4975845;28;20090;-78
2022/03/12 06:16:54;;;;;;;42.20;20.58;;;90.50;2176.00;;;;;;4975509;28;20394;-78
2022/03/12 06:19:20;;;;;;;30.52;17.63;;;90.40;2176.00;;;;;;4973193;28;20023;-77
2022/03/12 06:21:47;;;;;;;20.35;13.95;;;90.40;2176.00;;;;;;4974935;28;20165;-78
2022/03/12 06:24:14;;;;;;;37.28;16.38;;;90.30;2176.00;;;;;;4973611;28;20202;-78
2022/03/12 06:26:41;;;;;;;22.73;12.68;;;90.20;2176.00;;;;;;4975525;28;20027;-78
2022/03/12 06:29:13;;;;;;;41.30;22.33;;;90.10;2176.00;;;;;;4971713;28;20114;-78
2022/03/12 06:31:42;;;;;;;41.05;21.02;;;90.00;2176.00;;;;;;4995490;28;20032;-78
2022/03/12 06:34:12;;;;;;;25.45;14.23;;;89.90;2176.00;;;;;;4970876;28;20042;-78
2022/03/12 06:36:39;;;;;;;35.78;22.75;;;89.90;2176.00;;;;;;4972177;28;20160;-77
2022/03/12 06:39:07;;;;;;;38.95;21.63;;;89.80;2176.00;;;;;;4972755;28;20106;-78
2022/03/12 06:41:35;;;;;;;43.95;26.10;;;89.70;2176.00;;;;;;4972504;28;20503;-78
2022/03/12 06:44:02;;;;;;;46.42;28.63;;;89.60;2201.60;;;;;;4972553;28;20050;-77
2022/03/12 06:46:28;;;;;;;50.55;33.15;;;64.80;2201.60;;;;;;4972782;28;20031;-78
2022/03/12 06:48:54;;;;;;;44.85;24.77;;;64.60;2201.60;;;;;;4973168;28;20035;-89
2022/03/12 06:51:20;;;;;;;63.13;34.45;;;64.80;2201.60;;;;;;4973352;28;20023;-78
2022/03/12 06:53:45;;;;;;;40.55;22.88;;;64.60;2201.60;;;;;;4974869;28;20022;-77
2022/03/12 06:56:11;;;;;;;45.80;26.55;;;64.60;2201.60;;;;;;4973152;28;20030;-77
2022/03/12 06:58:37;;;;;;;42.33;23.48;;;64.50;2201.60;;;;;;4975178;28;20023;-79
2022/03/12 07:01:03;;;;;;;49.47;27.33;;;64.30;2201.60;;;;;;4975302;28;20538;-79
2022/03/12 07:03:29;;;;;;;55.85;28.65;;;64.20;2201.60;;;;;;4975268;28;20039;-77
2022/03/12 07:05:54;;;;;;;52.60;26.98;;;39.30;2201.60;;;;;;4979825;28;20026;-78
2022/03/12 07:08:21;;;;;;;53.85;30.50;;;39.10;2201.60;;;;;;4982832;28;20399;-77
2022/03/12 07:10:49;;;;;;;47.28;27.80;;;38.80;2201.60;;;;;;4992631;28;20023;-78
2022/03/12 07:13:16;;;;;;;55.67;32.42;;;38.70;2201.60;;;;;;4972519;28;20082;-79
2022/03/12 07:15:42;;;;;;;69.80;36.72;;;38.80;2201.60;;;;;;4976728;28;20057;-78
2022/03/12 07:18:08;;;;;;;74.78;36.70;;;38.60;2201.60;;;;;;4972369;28;20019;-79
2022/03/12 07:20:34;;;;;;;64.28;34.58;;;38.50;2201.60;;;;;;4972895;28;20074;-79
2022/03/12 07:23:00;;;;;;;66.50;34.05;;;13.70;2201.60;;;;;;4972594;28;20031;-78
2022/03/12 07:25:27;;;;;;;63.17;38.28;;;13.50;2201.60;;;;;;4972839;28;20166;-78
2022/03/12 07:27:54;;;;;;;63.47;36.33;;;13.50;2201.60;;;;;;4987456;28;20039;-79
2022/03/12 07:30:21;;;;;;;78.05;36.88;;;13.30;2201.60;;;;;;4974338;28;20031;-78
2022/03/12 07:32:48;;;;;;;59.10;34.78;;;13.30;2201.60;;;;;;4975918;28;20019;-78
2022/03/12 07:35:16;;;;;;;54.83;32.95;;;13.20;2201.60;;;;;;4973000;28;20030;-78
2022/03/12 07:37:44;;;;;;;64.75;36.65;;;13.00;2150.40;;;;;;4974878;28;20031;-78
2022/03/12 07:40:12;;;;;;;65.20;35.70;;;13.10;2201.60;;;;;;4989174;28;20038;-77
2022/03/12 07:42:38;;;;;;;69.03;36.75;;;12.90;2201.60;;;;;;4972847;28;20030;-80
2022/03/12 07:45:05;;;;;;;77.55;41.42;;;0.00;2150.40;;;;;;4972067;28;20027;-78
2022/03/12 07:47:31;;;;;;;58.92;37.25;;;0.10;2176.00;;;;;;4972449;28;20054;-79
2022/03/12 07:49:57;;;;;;;82.88;42.97;;;0.20;2048.00;;;;;;4974239;28;20023;-78
2022/03/12 07:52:22;;;;;;;65.90;38.88;;;0.20;2022.40;;;;;;4972455;28;20054;-77
2022/03/12 07:54:48;;;;;;;77.65;45.75;;;0.30;2048.00;;;;;;4972127;28;20113;-77
2022/03/12 07:57:14;;;;;;;79.15;45.50;;;0.40;2073.60;;;;;;4988888;28;20395;-77
2022/03/12 07:59:41;;;;;;;83.22;40.42;;;0.50;1996.80;;;;;;4976420;28;20022;-76
2022/03/12 08:02:07;;;;;;;70.88;40.58;;;0.40;1996.80;;;;;;4993928;28;20037;-76
2022/03/12 08:04:33;;;;;;;75.60;40.55;;;0.50;2048.00;;;;;;4994153;28;20034;-77
2022/03/12 08:07:02;;;;;;;65.50;38.90;;;0.70;2022.40;;;;;;4995240;28;20038;-78
2022/03/12 08:09:32;;;;;;;74.03;38.50;;;0.50;1920.00;;;;;;4994206;28;20049;-77
2022/03/12 08:11:59;;;;;;;60.45;35.72;;;0.60;2022.40;;;;;;4977616;28;20026;-76
2022/03/12 08:14:26;;;;;;;60.42;36.45;;;0.70;2022.40;;;;;;4995571;28;20163;-77
2022/03/12 08:16:52;;;;;;;56.50;34.45;;;0.80;1996.80;;;;;;5010272;28;20112;-77
2022/03/12 08:19:19;;;;;;;120.65;41.47;;;25.60;1920.00;;;;;;4995521;28;20019;-76
2022/03/12 08:21:46;;;;;;;71.28;38.58;;;25.60;1843.20;;;;;;4995472;28;20026;-75
2022/03/12 08:24:15;;;;;;;59.13;35.10;;;25.70;1868.80;;;;;;4994356;28;20105;-75
2022/03/12 08:26:42;;;;;;;59.45;37.45;;;25.80;1843.20;;;;;;4992014;28;20026;-77
2022/03/12 08:29:13;;;;;;;60.38;35.88;;;25.90;1894.40;;;;;;4993094;28;20066;-76
2022/03/12 08:31:39;;;;;;;57.20;34.42;;;26.00;1817.60;;;;;;4993218;28;20113;-75
2022/03/12 08:34:06;;;;;;;66.38;36.13;;;26.00;1817.60;;;;;;4993078;28;20396;-77
2022/03/12 08:36:32;;;;;;;53.90;31.85;;;26.10;1792.00;;;;;;4993017;28;20025;-76
2022/03/12 08:38:58;;;;;;;58.00;33.67;;;25.90;1740.80;;;;;;4993990;28;20030;-76
2022/03/12 08:41:25;;;;;;;56.17;35.35;;;26.10;1715.20;;;;;;4994890;28;20038;-76
2022/03/12 08:43:51;;;;;;;62.10;35.47;;;26.30;1689.60;;;;;;4977019;28;20065;-78
2022/03/12 08:46:17;;;;;;;56.97;35.92;;;26.50;1715.20;;;;;;5007442;28;20038;-76
2022/03/12 08:48:44;;;;;;;55.78;31.77;;;51.20;1689.60;;;;;;4991743;28;20085;-78
2022/03/12 08:51:09;;;;;;;38.33;23.90;;;51.20;1587.20;;;;;;5006227;28;20109;-77
2022/03/12 08:53:35;;;;;;;47.25;28.00;;;51.20;1459.20;;;;;;5009337;28;20114;-77
2022/03/12 08:56:03;;;;;;;48.20;26.17;;;51.40;1484.80;;;;;;5008656;28;20073;-78
2022/03/12 08:58:30;;;;;;;37.60;22.88;;;51.60;1484.80;;;;;;4992800;28;20069;-76
2022/03/12 09:00:59;;;;;;;34.78;21.23;;;51.50;1408.00;;;;;;4993787;28;20474;-80
2022/03/12 09:03:25;;;;;;;21.17;13.82;;;26.50;1331.20;;;;;;4994554;28;20065;-83
2022/03/12 09:05:51;;;;;;;19.20;11.13;;;26.30;1254.40;;;;;;4993430;28;20474;-78
2022/03/12 09:08:18;;;;;;;22.00;9.48;;;26.50;1228.80;;;;;;4994149;28;20043;-77
2022/03/12 09:10:45;;;;;;;27.80;14.00;;;26.40;1228.80;;;;;;4981761;28;20130;-78
2022/03/12 09:13:12;;;;;;;20.25;9.45;;;51.30;1254.40;;;;;;5025310;28;20077;-76
2022/03/12 09:15:39;;;;;;;19.40;12.43;;;51.30;1228.80;;;;;;4993434;28;20076;-77
2022/03/12 09:18:05;;;;;;;17.85;11.30;;;51.50;1203.20;;;;;;4976883;28;20477;-76
2022/03/12 09:20:32;;;;;;;22.15;12.63;;;51.60;1203.20;;;;;;4994093;28;20026;-76
2022/03/12 09:22:58;;;;;;;25.38;12.63;;;51.80;1177.60;;;;;;4994523;28;20401;-76
2022/03/12 09:25:24;;;;;;;16.08;10.27;;;52.00;1228.80;;;;;;4993962;28;20503;-76
2022/03/12 09:27:49;;;;;;;24.88;13.95;;;52.00;1203.20;;;;;;4993137;28;20401;-77
2022/03/12 09:30:15;;;;;;;23.02;12.77;;;51.70;1203.20;;;;;;4987615;28;20034;-75
2022/03/12 09:32:42;;;;;;;20.65;13.75;;;51.50;1228.80;;;;;;4994013;28;20033;-79
2022/03/12 09:35:09;;;;;;;27.27;13.63;;;51.60;1228.80;;;;;;4976633;28;20026;-76
2022/03/12 09:37:37;;;;;;;20.90;13.00;;;52.00;1254.40;;;;;;4994017;28;20117;-76
2022/03/12 09:40:05;;;;;;;18.38;10.95;;;76.80;1228.80;;;;;;4993927;28;20028;-76
2022/03/12 09:42:31;;;;;;;20.30;13.05;;;52.10;1203.20;;;;;;4993251;28;20027;-76
2022/03/12 09:44:58;;;;;;;19.42;11.15;;;52.10;1228.80;;;;;;4993521;28;20038;-76
2022/03/12 09:47:23;;;;;;;21.35;12.23;;;76.80;1203.20;;;;;;4993520;28;20042;-75
2022/03/12 09:49:49;;;;;;;19.20;12.27;;;77.00;1203.20;;;;;;4993491;28;20026;-76
2022/03/12 09:52:15;;;;;;;29.35;15.07;;;77.20;1203.20;;;;;;4976102;28;20542;-77
2022/03/12 09:54:41;;;;;;;20.58;11.48;;;77.50;1203.20;;;;;;4993783;28;20050;-77
2022/03/12 09:57:08;;;;;;;20.70;11.32;;;77.70;1177.60;;;;;;4992964;28;20027;-78
2022/03/12 09:59:33;;;;;;;25.75;11.30;;;102.40;1152.00;;;;;;4975904;28;20113;-79
2022/03/12 10:02:01;;;;;;;28.38;14.30;;;102.60;1152.00;;;;;;4993033;28;20402;-76
2022/03/12 10:04:27;;;;;;;25.77;12.88;;;102.50;1177.60;;;;;;4993330;28;20019;-79
2022/03/12 10:06:53;;;;;;;23.08;14.25;;;102.40;1177.60;;;;;;4992493;28;20096;-78
2022/03/12 10:09:19;;;;;;;28.13;13.30;;;77.30;1203.20;;;;;;4991265;28;20027;-78
2022/03/12 10:11:45;;;;;;;23.58;15.10;;;102.40;1203.20;;;;;;5009299;28;20520;-76
2022/03/12 10:14:12;;;;;;;25.75;15.40;;;102.70;1177.60;;;;;;5007688;28;20026;-76
2022/03/12 10:16:38;;;;;;;13.77;8.57;;;102.40;1203.20;;;;;;4986231;28;20022;-78
2022/03/12 10:19:03;;;;;;;22.00;11.88;;;77.20;1203.20;;;;;;4982457;28;20033;-77
2022/03/12 10:21:30;;;;;;;16.05;10.27;;;77.00;1203.20;;;;;;4989528;28;20072;-77
2022/03/12 10:23:57;;;;;;;22.38;11.55;;;52.00;1228.80;;;;;;4983415;28;20113;-76
2022/03/12 10:26:23;;;;;;;23.17;12.13;;;76.80;1228.80;;;;;;4991900;28;20031;-76
2022/03/12 10:28:49;;;;;;;23.50;13.10;;;76.90;1228.80;;;;;;4975394;28;20091;-76
2022/03/12 10:31:19;;;;;;;23.48;12.35;;;52.10;1203.20;;;;;;4976010;28;20485;-79
2022/03/12 10:33:45;;;;;;;18.05;11.38;;;77.20;1177.60;;;;;;4973418;28;20030;-77
2022/03/12 10:36:17;;;;;;;17.73;12.18;;;77.10;1177.60;;;;;;5014189;28;20153;-77
2022/03/12 10:38:48;;;;;;;18.17;12.15;;;77.30;1177.60;;;;;;4992300;28;20027;-76
2022/03/12 10:41:14;;;;;;;18.58;10.07;;;102.80;1126.40;;;;;;4992852;28;20032;-77
2022/03/12 10:43:49;;;;;;;15.25;9.40;;;102.60;1100.80;;;;;;4975256;28;20045;-77
2022/03/12 10:46:25;;;;;;;23.17;12.77;;;128.00;1075.20;;;;;;4974866;28;20122;-76
2022/03/12 10:48:58;;;;;;;24.20;12.20;;;153.80;1075.20;;;;;;4992494;28;20038;-77
2022/03/12 10:51:32;;;;;;;18.98;11.40;;;179.50;998.40;;;;;;4992486;28;20045;-77
2022/03/12 10:54:08;;;;;;;16.13;9.80;;;180.00;972.80;;;;;;4992123;28;20031;-78
2022/03/12 10:56:48;;;;;;;14.68;10.43;;;205.10;947.20;;;;;;4992277;28;20034;-76
2022/03/12 10:59:26;;;;;;;15.73;10.63;;;230.40;921.60;;;;;;4992387;28;20032;-76
2022/03/12 11:01:59;;;;;;;15.82;10.88;;;205.60;870.40;;;;;;5007529;28;20018;-77
2022/03/12 11:04:29;;;;;;;16.58;11.02;;;205.50;896.00;;;;;;5007252;28;20038;-77
2022/03/12 11:06:58;;;;;;;21.60;14.00;;;205.70;870.40;;;;;;4974785;28;20042;-76
2022/03/12 11:09:38;;;;;;;19.52;12.00;;;205.10;921.60;;;;;;4990782;28;20023;-77
2022/03/12 11:12:30;;;;;;;19.20;9.25;;;179.20;998.40;;;;;;4969774;28;20039;-77
2022/03/12 11:15:04;;;;;;;26.25;11.27;;;128.80;998.40;;;;;;4972897;28;20478;-77
2022/03/12 11:17:43;;;;;;;13.57;9.50;;;154.00;972.80;;;;;;4971564;28;20398;-76
2022/03/12 11:20:28;;;;;;;18.55;9.95;;;128.60;998.40;;;;;;4972773;28;20034;-76
2022/03/12 11:23:12;;;;;;;12.63;8.98;;;128.30;1126.40;;;;;;4972760;28;20027;-77
2022/03/12 11:25:56;;;;;;;19.77;10.02;;;128.30;1024.00;;;;;;4972067;28;20533;-76
2022/03/12 11:28:23;;;;;;;19.50;10.27;;;154.00;1331.20;;;;;;4971144;28;20493;-77
2022/03/12 11:30:50;;;;;;;17.90;11.32;;;;;;;;;;4992500;28;20394;-76
2022/03/12 11:33:17;;;;;;;25.15;13.63;;;179.20;972.80;;;;;;4996143;28;20493;-77
2022/03/12 11:35:45;;;;;;;19.05;12.65;;;231.10;921.60;;;;;;4996180;28;20033;-76
2022/03/12 11:38:21;;;;;;;28.10;19.10;;;256.00;870.40;;;;;;4994676;28;20388;-77
2022/03/12 11:41:09;;;;;;;21.65;13.23;;;256.40;870.40;;;;;;4994710;28;20038;-77
2022/03/12 11:43:42;;;;;;;20.08;13.43;;;;;;;;;;4995561;28;20022;-77
2022/03/12 11:46:10;;;;;;;23.27;15.70;;;307.20;870.40;;;;;;4996285;28;20030;-77
2022/03/12 11:48:38;;;;;;;20.95;12.70;;;307.20;870.40;;;;;;4995570;28;20101;-76
2022/03/12 11:51:21;;;;;;;17.40;11.60;;;307.90;819.20;;;;;;4995597;28;20049;-77
2022/03/12 11:53:47;;;;;;;14.55;10.18;;;281.80;768.00;;;;;;4996096;28;20385;-77
2022/03/12 11:56:14;;;;;;;16.38;12.88;;;205.60;844.80;;;;;;4995473;28;20038;-76
2022/03/12 11:58:40;;;;;;;16.08;12.18;;;205.10;896.00;;;;;;4981295;28;20507;-76
2022/03/12 12:01:06;;;;;;;15.43;11.90;;;180.10;921.60;;;;;;4958946;28;20061;-76
2022/03/12 12:03:32;;;;;;;33.53;13.38;;;179.70;921.60;;;;;;4976180;28;20070;-77
2022/03/12 12:05:58;;;;;;;21.27;11.65;;;231.00;896.00;;;;;;4982701;28;20030;-76
2022/03/12 12:08:25;;;;;;;19.48;12.95;;;282.00;819.20;;;;;;5010495;28;20442;-76